createdAt,value
2023-03-05T00:01:24.502Z,8.39
2023-03-05T00:02:56.290Z,8.40
2023-03-05T00:04:27.898Z,8.36
2023-03-05T00:05:59.451Z,8.33
2023-03-05T00:07:31.138Z,8.34
2023-03-05T00:09:02.990Z,8.34
2023-03-05T00:10:34.560Z,8.34
2023-03-05T00:12:06.895Z,8.31
2023-03-05T00:13:38.556Z,8.30
2023-03-05T00:15:10.199Z,8.26
2023-03-05T00:16:41.774Z,8.25
2023-03-05T00:18:13.254Z,8.26
2023-03-05T00:19:44.786Z,8.28
2023-03-05T00:21:23.637Z,8.29
2023-03-05T00:22:55.266Z,8.24
2023-03-05T00:24:27.064Z,8.25
2023-03-05T00:26:01.168Z,8.26
2023-03-05T00:27:33.145Z,8.29
2023-03-05T00:29:04.954Z,8.31
2023-03-05T00:30:36.612Z,8.34
2023-03-05T00:32:08.269Z,8.32
2023-03-05T00:33:40.433Z,8.26
2023-03-05T00:35:12.750Z,8.24
2023-03-05T00:36:45.741Z,8.22
2023-03-05T00:38:17.442Z,8.20
2023-03-05T00:39:49.102Z,8.21
2023-03-05T00:41:20.668Z,8.22
2023-03-05T00:42:52.143Z,8.21
2023-03-05T00:44:26.163Z,8.19
2023-03-05T00:45:58.504Z,8.17
2023-03-05T00:47:31.505Z,8.13
2023-03-05T00:49:04.418Z,8.12
2023-03-05T00:50:40.677Z,8.11
2023-03-05T00:52:12.950Z,8.11
2023-03-05T00:53:44.570Z,8.11
2023-03-05T00:55:16.252Z,8.09
2023-03-05T00:56:49.346Z,8.07
2023-03-05T00:58:21.406Z,8.07
2023-03-05T00:59:52.903Z,8.07
2023-03-05T01:01:24.608Z,8.08
2023-03-05T01:02:56.120Z,8.11
2023-03-05T01:04:27.691Z,8.16
2023-03-05T01:05:59.418Z,8.18
2023-03-05T01:07:30.956Z,8.18
2023-03-05T01:09:02.460Z,8.20
2023-03-05T01:10:34.330Z,8.20
2023-03-05T01:12:06.050Z,8.19
2023-03-05T01:13:37.753Z,8.19
2023-03-05T01:15:10.165Z,8.19
2023-03-05T01:16:42.368Z,8.13
2023-03-05T01:18:17.294Z,8.08
2023-03-05T01:19:49.553Z,8.01
2023-03-05T01:21:22.498Z,7.98
2023-03-05T01:22:56.805Z,8.00
2023-03-05T01:24:30.059Z,8.03
2023-03-05T01:26:04.132Z,8.10
2023-03-05T01:27:35.907Z,8.08
2023-03-05T01:29:09.144Z,8.03
2023-03-05T01:30:45.409Z,7.91
2023-03-05T01:32:17.343Z,7.77
2023-03-05T01:33:54.211Z,7.68
2023-03-05T01:35:34.446Z,7.60
2023-03-05T01:37:06.325Z,7.48
2023-03-05T01:38:38.255Z,7.49
2023-03-05T01:40:10.751Z,7.55
2023-03-05T01:41:42.251Z,7.59
2023-03-05T01:43:13.932Z,7.64
2023-03-05T01:45:01.358Z,7.68
2023-03-05T01:46:37.092Z,7.68
2023-03-05T01:48:08.640Z,7.67
2023-03-05T01:49:40.198Z,7.67
2023-03-05T01:51:11.691Z,7.70
2023-03-05T01:52:44.325Z,7.71
2023-03-05T01:54:16.032Z,7.72
2023-03-05T01:55:47.638Z,7.73
2023-03-05T01:57:23.326Z,7.73
2023-03-05T01:59:01.272Z,7.72
2023-03-05T02:01:05.544Z,7.70
2023-03-05T02:02:53.758Z,7.67
2023-03-05T02:04:32.390Z,7.63
2023-03-05T02:06:09.271Z,7.61
2023-03-05T02:07:50.638Z,7.63
2023-03-05T02:09:28.717Z,7.62
2023-03-05T02:11:04.534Z,7.61
2023-03-05T02:12:36.106Z,7.57
2023-03-05T02:14:10.119Z,7.53
2023-03-05T02:15:42.176Z,7.49
2023-03-05T02:17:13.747Z,7.47
2023-03-05T02:18:45.401Z,7.49
2023-03-05T02:20:21.504Z,7.54
2023-03-05T02:21:53.168Z,7.60
2023-03-05T02:23:28.568Z,7.63
2023-03-05T02:25:00.843Z,7.66
2023-03-05T02:26:32.469Z,7.65
2023-03-05T02:28:06.407Z,7.68
2023-03-05T02:29:37.900Z,7.67
2023-03-05T02:31:10.497Z,7.65
2023-03-05T02:32:42.082Z,7.68
2023-03-05T02:34:13.669Z,7.67
2023-03-05T02:35:47.062Z,7.66
2023-03-05T02:37:30.150Z,7.63
2023-03-05T02:39:11.031Z,7.58
2023-03-05T02:40:57.928Z,7.51
2023-03-05T02:42:34.760Z,7.46
2023-03-05T02:44:06.507Z,7.44
2023-03-05T02:45:38.313Z,7.41
2023-03-05T02:47:09.877Z,7.37
2023-03-05T02:48:42.066Z,7.36
2023-03-05T02:50:13.812Z,7.36
2023-03-05T02:51:45.332Z,7.39
2023-03-05T02:53:16.977Z,7.40
2023-03-05T02:54:48.505Z,7.36
2023-03-05T02:56:20.029Z,7.38
2023-03-05T02:57:51.518Z,7.35
2023-03-05T02:59:23.172Z,7.34
2023-03-05T03:00:54.734Z,7.37
2023-03-05T03:02:26.331Z,7.40
2023-03-05T03:03:57.877Z,7.38
2023-03-05T03:05:29.545Z,7.38
2023-03-05T03:07:01.276Z,7.37
2023-03-05T03:08:32.823Z,7.43
2023-03-05T03:10:04.720Z,7.48
2023-03-05T03:11:36.257Z,7.52
2023-03-05T03:13:07.761Z,7.56
2023-03-05T03:14:39.810Z,7.53
2023-03-05T03:16:12.598Z,7.47
2023-03-05T03:17:44.584Z,7.45
2023-03-05T03:19:16.638Z,7.43
2023-03-05T03:20:48.131Z,7.46
2023-03-05T03:22:19.716Z,7.46
2023-03-05T03:23:51.383Z,7.46
2023-03-05T03:25:23.792Z,7.46
2023-03-05T03:26:55.855Z,7.50
2023-03-05T03:28:27.350Z,7.52
2023-03-05T03:30:02.765Z,7.50
2023-03-05T03:31:34.999Z,7.50
2023-03-05T03:33:12.909Z,7.51
2023-03-05T03:34:50.955Z,7.54
2023-03-05T03:36:27.985Z,7.52
2023-03-05T03:38:05.027Z,7.51
2023-03-05T03:39:47.314Z,7.53
2023-03-05T03:41:19.507Z,7.53
2023-03-05T03:42:53.724Z,7.52
2023-03-05T03:44:25.592Z,7.50
2023-03-05T03:45:57.197Z,7.48
2023-03-05T03:47:29.303Z,7.45
2023-03-05T03:49:01.180Z,7.42
2023-03-05T03:50:32.722Z,7.40
2023-03-05T03:52:04.404Z,7.40
2023-03-05T03:53:36.450Z,7.39
2023-03-05T03:55:08.265Z,7.38
2023-03-05T03:56:40.305Z,7.37
2023-03-05T03:58:11.858Z,7.39
2023-03-05T03:59:45.890Z,7.43
2023-03-05T04:01:17.562Z,7.42
2023-03-05T04:02:49.226Z,7.44
2023-03-05T04:04:20.837Z,7.43
2023-03-05T04:05:52.396Z,7.39
2023-03-05T04:07:25.627Z,7.38
2023-03-05T04:09:02.651Z,7.36
2023-03-05T04:10:34.228Z,7.37
2023-03-05T04:12:06.210Z,7.35
2023-03-05T04:13:38.454Z,7.33
2023-03-05T04:15:10.965Z,7.34
2023-03-05T04:16:42.501Z,7.34
2023-03-05T04:18:13.967Z,7.34
2023-03-05T04:19:45.532Z,7.33
2023-03-05T04:21:17.042Z,7.33
2023-03-05T04:22:48.567Z,7.31
2023-03-05T04:24:20.121Z,7.29
2023-03-05T04:25:51.955Z,7.27
2023-03-05T04:27:23.878Z,7.27
2023-03-05T04:28:55.479Z,7.29
2023-03-05T04:30:27.013Z,7.27
2023-03-05T04:31:58.580Z,7.23
2023-03-05T04:33:30.102Z,7.23
2023-03-05T04:35:01.893Z,7.17
2023-03-05T04:36:33.539Z,7.12
2023-03-05T04:38:05.392Z,7.13
2023-03-05T04:39:37.299Z,7.15
2023-03-05T04:41:08.868Z,7.18
2023-03-05T04:42:40.394Z,7.11
2023-03-05T04:44:11.946Z,7.09
2023-03-05T04:45:43.719Z,7.05
2023-03-05T04:47:15.651Z,7.00
2023-03-05T04:48:47.144Z,6.91
2023-03-05T04:50:18.802Z,6.87
2023-03-05T04:51:50.556Z,6.89
2023-03-05T04:53:22.111Z,6.91
2023-03-05T04:54:54.476Z,6.89
2023-03-05T04:56:26.349Z,6.88
2023-03-05T04:57:57.913Z,6.91
2023-03-05T04:59:29.410Z,6.87
2023-03-05T05:01:04.388Z,6.79
2023-03-05T05:02:37.272Z,6.79
2023-03-05T05:04:11.651Z,6.83
2023-03-05T05:05:46.987Z,6.85
2023-03-05T05:07:37.329Z,6.81
2023-03-05T05:09:09.439Z,6.73
2023-03-05T05:10:41.624Z,6.71
2023-03-05T05:12:13.267Z,6.74
2023-03-05T05:13:44.904Z,6.74
2023-03-05T05:15:16.893Z,6.72
2023-03-05T05:16:49.471Z,6.70
2023-03-05T05:18:21.508Z,6.72
2023-03-05T05:19:53.243Z,6.71
2023-03-05T05:21:25.050Z,6.72
2023-03-05T05:22:56.765Z,6.72
2023-03-05T05:24:28.526Z,6.67
2023-03-05T05:26:00.744Z,6.69
2023-03-05T05:27:32.597Z,6.74
2023-03-05T05:29:08.312Z,6.69
2023-03-05T05:30:40.878Z,6.69
2023-03-05T05:32:12.847Z,6.65
2023-03-05T05:33:49.804Z,6.63
2023-03-05T05:35:22.183Z,6.64
2023-03-05T05:36:54.138Z,6.58
2023-03-05T05:38:26.397Z,6.60
2023-03-05T05:39:58.101Z,6.60
2023-03-05T05:41:29.907Z,6.56
2023-03-05T05:43:01.548Z,6.60
2023-03-05T05:44:36.115Z,6.59
2023-03-05T05:46:10.049Z,6.58
2023-03-05T05:47:46.447Z,6.60
2023-03-05T05:49:19.602Z,6.61
2023-03-05T05:50:51.478Z,6.63
2023-03-05T05:52:23.578Z,6.63
2023-03-05T05:53:55.782Z,6.64
2023-03-05T05:55:30.302Z,6.67
2023-03-05T05:57:05.817Z,6.65
2023-03-05T05:58:43.447Z,6.64
2023-03-05T06:00:21.947Z,6.64
2023-03-05T06:01:58.877Z,6.60
2023-03-05T06:03:38.736Z,6.62
2023-03-05T06:05:17.317Z,6.66
2023-03-05T06:07:06.986Z,6.68
2023-03-05T06:08:48.834Z,6.66
2023-03-05T06:10:21.467Z,6.67
2023-03-05T06:11:53.098Z,6.71
2023-03-05T06:13:26.791Z,6.76
2023-03-05T06:14:58.489Z,6.81
2023-03-05T06:16:30.940Z,6.84
2023-03-05T06:18:02.948Z,6.85
2023-03-05T06:19:35.991Z,6.88
2023-03-05T06:21:08.813Z,6.85
2023-03-05T06:22:40.754Z,6.83
2023-03-05T06:24:13.142Z,6.83
2023-03-05T06:25:45.170Z,6.88
2023-03-05T06:27:17.461Z,6.94
2023-03-05T06:28:49.893Z,6.95
2023-03-05T06:30:21.914Z,6.96
2023-03-05T06:31:54.207Z,7.02
2023-03-05T06:33:26.616Z,7.05
2023-03-05T06:34:58.771Z,7.07
2023-03-05T06:36:30.768Z,7.08
2023-03-05T06:38:02.945Z,7.09
2023-03-05T06:39:34.770Z,7.08
2023-03-05T06:41:09.654Z,7.06
2023-03-05T06:42:41.490Z,7.10
2023-03-05T06:44:13.608Z,7.17
2023-03-05T06:45:45.759Z,7.17
2023-03-05T06:47:17.982Z,7.21
2023-03-05T06:48:49.991Z,7.27
2023-03-05T06:50:21.970Z,7.31
2023-03-05T06:51:53.556Z,7.36
2023-03-05T06:53:25.558Z,7.35
2023-03-05T06:54:57.604Z,7.33
2023-03-05T06:56:29.543Z,7.33
2023-03-05T06:58:01.148Z,7.29
2023-03-05T06:59:32.691Z,7.33
2023-03-05T07:01:07.408Z,7.41
2023-03-05T07:02:39.033Z,7.43
2023-03-05T07:04:11.341Z,7.45
2023-03-05T07:05:43.103Z,7.48
2023-03-05T07:07:15.231Z,7.54
2023-03-05T07:08:47.254Z,7.60
2023-03-05T07:10:19.666Z,7.60
2023-03-05T07:11:51.594Z,7.67
2023-03-05T07:13:23.381Z,7.69
2023-03-05T07:14:55.373Z,7.67
2023-03-05T07:16:27.704Z,7.60
2023-03-05T07:17:59.906Z,7.60
2023-03-05T07:19:32.291Z,7.64
2023-03-05T07:21:04.938Z,7.68
2023-03-05T07:22:37.365Z,7.69
2023-03-05T07:24:09.226Z,7.71
2023-03-05T07:25:40.884Z,7.76
2023-03-05T07:27:12.511Z,7.79
2023-03-05T07:28:44.163Z,7.87
2023-03-05T07:30:16.687Z,7.90
2023-03-05T07:31:48.870Z,7.89
2023-03-05T07:33:20.541Z,7.92
2023-03-05T07:34:52.757Z,7.94
2023-03-05T07:36:24.556Z,7.88
2023-03-05T07:37:56.479Z,7.93
2023-03-05T07:39:28.392Z,7.99
2023-03-05T07:41:26.056Z,8.01
2023-03-05T07:42:57.692Z,7.99
2023-03-05T07:44:29.379Z,7.99
2023-03-05T07:46:03.822Z,8.05
2023-03-05T07:47:35.950Z,8.08
2023-03-05T07:49:07.877Z,8.11
2023-03-05T07:50:39.750Z,8.15
2023-03-05T07:52:11.470Z,8.21
2023-03-05T07:53:44.192Z,8.23
2023-03-05T07:55:16.730Z,8.18
2023-03-05T07:56:49.022Z,8.17
2023-03-05T07:58:20.779Z,8.19
2023-03-05T07:59:52.576Z,8.23
2023-03-05T08:01:24.452Z,8.24
2023-03-05T08:02:57.061Z,8.31
2023-03-05T08:04:32.184Z,8.35
2023-03-05T08:06:05.739Z,8.35
2023-03-05T08:07:37.392Z,8.37
2023-03-05T08:09:09.118Z,8.41
2023-03-05T08:10:40.709Z,8.44
2023-03-05T08:12:12.232Z,8.43
2023-03-05T08:13:44.053Z,8.47
2023-03-05T08:15:15.958Z,8.54
2023-03-05T08:16:49.750Z,8.61
2023-03-05T08:18:21.796Z,8.62
2023-03-05T08:19:58.084Z,8.59
2023-03-05T08:21:32.054Z,8.60
2023-03-05T08:23:04.343Z,8.61
2023-03-05T08:24:36.269Z,8.62
2023-03-05T08:26:14.792Z,8.64
2023-03-05T08:27:46.983Z,8.67
2023-03-05T08:29:18.641Z,8.69
2023-03-05T08:30:50.338Z,8.65
2023-03-05T08:32:34.917Z,8.70
2023-03-05T08:34:08.062Z,8.70
2023-03-05T08:35:39.962Z,8.65
2023-03-05T08:37:12.276Z,8.62
2023-03-05T08:38:46.949Z,8.59
2023-03-05T08:40:18.716Z,8.55
2023-03-05T08:41:50.754Z,8.57
2023-03-05T08:43:22.574Z,8.59
2023-03-05T08:44:54.710Z,8.65
2023-03-05T08:46:26.475Z,8.64
2023-03-05T08:47:58.740Z,8.63
2023-03-05T08:49:30.757Z,8.70
2023-03-05T08:51:07.131Z,8.77
2023-03-05T08:52:38.863Z,8.81
2023-03-05T08:54:10.666Z,8.77
2023-03-05T08:55:44.190Z,8.73
2023-03-05T08:57:16.552Z,8.70
2023-03-05T08:58:48.801Z,8.69
2023-03-05T09:00:21.010Z,8.71
2023-03-05T09:01:53.424Z,8.75
2023-03-05T09:03:25.177Z,8.79
2023-03-05T09:04:56.953Z,8.87
2023-03-05T09:06:29.139Z,8.91
2023-03-05T09:08:00.938Z,8.94
2023-03-05T09:09:33.240Z,8.96
2023-03-05T09:11:05.426Z,8.97
2023-03-05T09:12:37.971Z,9.00
2023-03-05T09:14:10.208Z,9.04
2023-03-05T09:15:41.982Z,9.06
2023-03-05T09:17:13.889Z,9.06
2023-03-05T09:18:45.563Z,9.13
2023-03-05T09:20:17.602Z,9.19
2023-03-05T09:21:49.260Z,9.24
2023-03-05T09:23:21.057Z,9.29
2023-03-05T09:24:53.174Z,9.38
2023-03-05T09:26:25.139Z,9.48
2023-03-05T09:27:57.094Z,9.46
2023-03-05T09:29:30.146Z,9.48
2023-03-05T09:31:02.348Z,9.54
2023-03-05T09:32:34.084Z,9.62
2023-03-05T09:34:06.002Z,9.71
2023-03-05T09:35:38.396Z,9.72
2023-03-05T09:37:10.274Z,9.79
2023-03-05T09:38:42.528Z,9.79
2023-03-05T09:40:15.321Z,9.82
2023-03-05T09:41:59.070Z,9.82
2023-03-05T09:43:41.497Z,9.84
2023-03-05T09:45:18.865Z,9.93
2023-03-05T09:46:54.992Z,9.98
2023-03-05T09:48:30.687Z,9.99
2023-03-05T09:50:08.293Z,9.98
2023-03-05T09:51:40.722Z,10.01
2023-03-05T09:53:12.741Z,10.04
2023-03-05T09:54:44.990Z,10.09
2023-03-05T09:56:17.391Z,10.11
2023-03-05T09:57:50.074Z,10.12
2023-03-05T09:59:28.677Z,10.12
2023-03-05T10:01:08.113Z,10.07
2023-03-05T10:02:41.752Z,10.07
2023-03-05T10:04:21.571Z,10.14
2023-03-05T10:06:02.053Z,10.13
2023-03-05T10:07:34.339Z,10.16
2023-03-05T10:09:05.925Z,10.21
2023-03-05T10:10:41.150Z,10.26
2023-03-05T10:12:14.874Z,10.30
2023-03-05T10:13:46.752Z,10.33
2023-03-05T10:15:24.538Z,10.32
2023-03-05T10:16:59.028Z,10.31
2023-03-05T10:18:33.452Z,10.34
2023-03-05T10:20:26.598Z,10.38
2023-03-05T10:22:01.067Z,10.40
2023-03-05T10:23:41.813Z,10.45
2023-03-05T10:25:24.380Z,10.49
2023-03-05T10:26:59.995Z,10.47
2023-03-05T10:28:35.613Z,10.47
2023-03-05T10:30:22.813Z,10.52
2023-03-05T10:32:16.640Z,10.58
2023-03-05T10:33:57.392Z,10.59
2023-03-05T10:35:47.319Z,10.64
2023-03-05T10:37:22.026Z,10.69
2023-03-05T10:38:57.657Z,10.73
2023-03-05T10:40:32.687Z,10.79
2023-03-05T10:42:13.571Z,10.86
2023-03-05T10:43:45.841Z,10.90
2023-03-05T10:45:18.286Z,10.97
2023-03-05T10:46:49.832Z,11.02
2023-03-05T10:48:39.963Z,11.08
2023-03-05T10:50:16.294Z,11.10
2023-03-05T10:51:49.394Z,11.08
2023-03-05T10:53:24.594Z,11.02
2023-03-05T10:54:56.277Z,11.04
2023-03-05T10:56:28.457Z,11.12
2023-03-05T10:58:01.018Z,11.19
2023-03-05T10:59:32.805Z,11.18
2023-03-05T11:01:04.700Z,11.19
2023-03-05T11:02:38.388Z,11.22
2023-03-05T11:04:25.694Z,11.26
2023-03-05T11:06:01.876Z,11.27
2023-03-05T11:07:34.068Z,11.22
2023-03-05T11:09:21.927Z,11.21
2023-03-05T11:11:12.897Z,11.14
2023-03-05T11:12:45.179Z,11.16
2023-03-05T11:14:24.160Z,11.17
2023-03-05T11:16:01.462Z,11.18
2023-03-05T11:17:34.184Z,11.20
2023-03-05T11:19:18.678Z,11.22
2023-03-05T11:20:50.423Z,11.25
2023-03-05T11:22:22.540Z,11.27
2023-03-05T11:24:09.651Z,11.34
2023-03-05T11:25:54.813Z,11.38
2023-03-05T11:27:30.994Z,11.46
2023-03-05T11:29:05.358Z,11.56
2023-03-05T11:30:37.511Z,11.62
2023-03-05T11:32:35.656Z,11.65
2023-03-05T11:34:19.475Z,11.67
2023-03-05T11:35:52.796Z,11.67
2023-03-05T11:37:25.645Z,11.75
2023-03-05T11:39:07.001Z,11.83
2023-03-05T11:40:38.928Z,11.85
2023-03-05T11:42:14.166Z,11.89
2023-03-05T11:43:46.072Z,12.00
2023-03-05T11:45:19.162Z,11.98
2023-03-05T11:46:56.305Z,12.00
2023-03-05T11:48:38.290Z,11.99
2023-03-05T11:50:13.255Z,11.95
2023-03-05T11:52:31.989Z,11.96
2023-03-05T11:54:10.715Z,11.91
2023-03-05T11:55:42.700Z,11.96
2023-03-05T11:57:15.361Z,11.94
2023-03-05T11:58:47.417Z,11.95
2023-03-05T12:00:24.248Z,11.93
2023-03-05T12:01:56.670Z,11.98
2023-03-05T12:03:32.891Z,11.97
2023-03-05T12:05:06.240Z,12.00
2023-03-05T12:06:42.541Z,12.07
2023-03-05T12:08:15.523Z,12.11
2023-03-05T12:09:50.424Z,12.09
2023-03-05T12:11:29.604Z,12.11
2023-03-05T12:13:01.488Z,12.06
2023-03-05T12:14:44.858Z,12.07
2023-03-05T12:16:16.424Z,12.11
2023-03-05T12:17:57.392Z,12.10
2023-03-05T12:19:36.128Z,12.10
2023-03-05T12:21:09.352Z,12.14
2023-03-05T12:22:44.955Z,12.18
2023-03-05T12:24:28.334Z,12.13
2023-03-05T12:26:05.831Z,12.09
2023-03-05T12:27:38.130Z,12.04
2023-03-05T12:29:26.546Z,12.11
2023-03-05T12:30:59.570Z,12.12
2023-03-05T12:32:35.422Z,12.19
2023-03-05T12:34:34.693Z,12.23
2023-03-05T12:36:22.100Z,12.24
2023-03-05T12:37:54.520Z,12.26
2023-03-05T12:39:45.192Z,12.33
2023-03-05T12:41:34.577Z,12.33
2023-03-05T12:43:06.533Z,12.33
2023-03-05T12:44:40.133Z,12.36
2023-03-05T12:46:25.175Z,12.32
2023-03-05T12:47:57.012Z,12.29
2023-03-05T12:49:29.224Z,12.24
2023-03-05T12:51:00.874Z,12.22
2023-03-05T12:52:33.535Z,12.29
2023-03-05T12:54:25.512Z,12.42
2023-03-05T12:55:58.490Z,12.49
2023-03-05T12:57:31.800Z,12.48
2023-03-05T12:59:04.357Z,12.44
2023-03-05T13:00:44.840Z,12.49
2023-03-05T13:02:21.663Z,12.42
2023-03-05T13:03:55.047Z,12.32
2023-03-05T13:05:31.057Z,12.20
2023-03-05T13:07:13.365Z,12.13
2023-03-05T13:09:01.734Z,12.11
2023-03-05T13:10:33.864Z,12.00
2023-03-05T13:12:10.049Z,11.99
2023-03-05T13:13:42.618Z,11.94
2023-03-05T13:15:14.522Z,11.90
2023-03-05T13:16:46.461Z,11.89
2023-03-05T13:18:27.865Z,11.90
2023-03-05T13:20:00.242Z,11.87
2023-03-05T13:21:32.718Z,11.89
2023-03-05T13:23:10.010Z,11.83
2023-03-05T13:24:41.875Z,11.78
2023-03-05T13:26:16.046Z,11.76
2023-03-05T13:27:47.749Z,11.76
2023-03-05T13:29:20.461Z,11.73
2023-03-05T13:30:56.780Z,11.65
2023-03-05T13:32:29.415Z,11.57
2023-03-05T13:34:08.333Z,11.50
2023-03-05T13:35:40.180Z,11.50
2023-03-05T13:37:18.739Z,11.45
2023-03-05T13:38:50.374Z,11.42
2023-03-05T13:40:29.296Z,11.34
2023-03-05T13:42:08.419Z,11.27
2023-03-05T13:43:46.561Z,11.25
2023-03-05T13:45:24.816Z,11.25
2023-03-05T13:47:09.918Z,11.24
2023-03-05T13:48:41.791Z,11.24
2023-03-05T13:50:28.727Z,11.21
2023-03-05T13:52:00.980Z,11.15
2023-03-05T13:53:32.974Z,11.15
2023-03-05T13:55:05.434Z,11.12
2023-03-05T13:56:37.379Z,11.11
2023-03-05T13:58:28.919Z,11.15
2023-03-05T14:00:01.193Z,11.20
2023-03-05T14:01:40.975Z,11.22
2023-03-05T14:03:18.389Z,11.24
2023-03-05T14:04:50.119Z,11.26
2023-03-05T14:06:22.271Z,11.18
2023-03-05T14:07:54.065Z,11.19
2023-03-05T14:09:25.827Z,11.18
2023-03-05T14:10:57.746Z,11.17
2023-03-05T14:12:37.168Z,11.12
2023-03-05T14:14:10.315Z,11.07
2023-03-05T14:15:42.135Z,11.00
2023-03-05T14:17:30.368Z,10.98
2023-03-05T14:19:03.530Z,10.98
2023-03-05T14:20:35.276Z,10.97
2023-03-05T14:22:06.978Z,10.96
2023-03-05T14:23:43.392Z,10.99
2023-03-05T14:25:35.163Z,10.93
2023-03-05T14:27:08.780Z,10.87
2023-03-05T14:28:41.120Z,10.81
2023-03-05T14:30:15.138Z,10.83
2023-03-05T14:31:53.860Z,10.84
2023-03-05T14:33:27.095Z,10.83
2023-03-05T14:34:59.652Z,10.78
2023-03-05T14:36:31.730Z,10.77
2023-03-05T14:38:03.627Z,10.75
2023-03-05T14:39:38.175Z,10.76
2023-03-05T14:41:19.501Z,10.78
2023-03-05T14:42:58.726Z,10.74
2023-03-05T14:44:30.931Z,10.70
2023-03-05T14:46:02.481Z,10.72
2023-03-05T14:47:34.173Z,10.73
2023-03-05T14:49:06.120Z,10.77
2023-03-05T14:50:43.668Z,10.80
2023-03-05T14:52:16.265Z,10.80
2023-03-05T14:53:48.145Z,10.79
2023-03-05T14:55:21.592Z,10.80
2023-03-05T14:56:53.572Z,10.79
2023-03-05T14:58:26.500Z,10.78
2023-03-05T14:59:58.128Z,10.75
2023-03-05T15:01:29.871Z,10.68
2023-03-05T15:03:01.971Z,10.67
2023-03-05T15:04:33.764Z,10.65
2023-03-05T15:06:05.429Z,10.58
2023-03-05T15:07:37.275Z,10.54
2023-03-05T15:09:10.834Z,10.56
2023-03-05T15:10:42.591Z,10.58
2023-03-05T15:12:14.801Z,10.60
2023-03-05T15:13:46.507Z,10.58
2023-03-05T15:15:18.779Z,10.58
2023-03-05T15:16:50.976Z,10.56
2023-03-05T15:18:23.229Z,10.53
2023-03-05T15:20:01.078Z,10.52
2023-03-05T15:21:33.003Z,10.49
2023-03-05T15:23:04.807Z,10.47
2023-03-05T15:24:36.837Z,10.46
2023-03-05T15:26:09.169Z,10.46
2023-03-05T15:27:41.122Z,10.48
2023-03-05T15:29:13.095Z,10.49
2023-03-05T15:30:45.628Z,10.48
2023-03-05T15:32:17.425Z,10.49
2023-03-05T15:33:49.404Z,10.48
2023-03-05T15:35:21.896Z,10.45
2023-03-05T15:36:53.763Z,10.42
2023-03-05T15:38:25.563Z,10.44
2023-03-05T15:39:57.280Z,10.43
2023-03-05T15:41:29.053Z,10.38
2023-03-05T15:43:00.749Z,10.33
2023-03-05T15:44:32.559Z,10.25
2023-03-05T15:46:10.018Z,10.14
2023-03-05T15:47:42.466Z,10.10
2023-03-05T15:49:14.780Z,10.07
2023-03-05T15:50:46.967Z,10.01
2023-03-05T15:52:18.815Z,9.98
2023-03-05T15:53:50.335Z,9.93
2023-03-05T15:55:22.241Z,9.87
2023-03-05T15:56:54.119Z,9.86
2023-03-05T15:58:26.252Z,9.81
2023-03-05T15:59:58.012Z,9.73
2023-03-05T16:01:30.351Z,9.66
2023-03-05T16:03:02.050Z,9.63
2023-03-05T16:04:33.666Z,9.60
2023-03-05T16:06:05.680Z,9.58
2023-03-05T16:07:37.785Z,9.53
2023-03-05T16:09:09.932Z,9.46
2023-03-05T16:10:41.683Z,9.38
2023-03-05T16:12:15.168Z,9.31
2023-03-05T16:13:47.300Z,9.26
2023-03-05T16:15:19.474Z,9.22
2023-03-05T16:16:51.488Z,9.19
2023-03-05T16:18:23.241Z,9.14
2023-03-05T16:19:55.130Z,9.09
2023-03-05T16:21:26.725Z,9.10
2023-03-05T16:22:58.717Z,9.07
2023-03-05T16:24:30.531Z,9.06
2023-03-05T16:26:02.135Z,9.04
2023-03-05T16:27:33.808Z,9.02
2023-03-05T16:29:05.450Z,9.00
2023-03-05T16:30:38.257Z,8.97
2023-03-05T16:32:09.999Z,8.97
2023-03-05T16:33:41.829Z,8.92
2023-03-05T16:35:13.839Z,8.88
2023-03-05T16:36:49.174Z,8.83
2023-03-05T16:38:20.935Z,8.79
2023-03-05T16:39:52.614Z,8.83
2023-03-05T16:41:24.940Z,8.86
2023-03-05T16:42:56.899Z,8.91
2023-03-05T16:44:29.001Z,8.94
2023-03-05T16:46:02.010Z,8.98
2023-03-05T16:47:34.290Z,8.95
2023-03-05T16:49:06.540Z,8.91
2023-03-05T16:50:38.068Z,8.94
2023-03-05T16:52:18.823Z,8.95
2023-03-05T16:53:51.184Z,8.95
2023-03-05T16:55:22.786Z,8.89
2023-03-05T16:56:54.771Z,8.84
2023-03-05T16:58:26.452Z,8.76
2023-03-05T16:59:58.663Z,8.69
2023-03-05T17:01:30.571Z,8.67
2023-03-05T17:03:02.162Z,8.60
2023-03-05T17:04:33.831Z,8.54
2023-03-05T17:06:09.053Z,8.51
2023-03-05T17:07:40.602Z,8.46
2023-03-05T17:09:12.681Z,8.44
2023-03-05T17:10:44.252Z,8.41
2023-03-05T17:12:16.478Z,8.38
2023-03-05T17:13:49.028Z,8.37
2023-03-05T17:15:20.925Z,8.35
2023-03-05T17:16:52.738Z,8.36
2023-03-05T17:18:24.753Z,8.35
2023-03-05T17:19:56.367Z,8.34
2023-03-05T17:21:27.938Z,8.33
2023-03-05T17:23:02.298Z,8.28
2023-03-05T17:24:33.836Z,8.27
2023-03-05T17:26:09.491Z,8.24
2023-03-05T17:27:41.206Z,8.24
2023-03-05T17:29:12.732Z,8.18
2023-03-05T17:30:44.384Z,8.16
2023-03-05T17:32:15.986Z,8.16
2023-03-05T17:33:47.735Z,8.14
2023-03-05T17:35:20.431Z,8.10
2023-03-05T17:36:52.063Z,8.08
2023-03-05T17:38:23.750Z,8.06
2023-03-05T17:39:55.349Z,8.01
2023-03-05T17:41:27.054Z,7.94
2023-03-05T17:42:58.720Z,7.93
2023-03-05T17:44:30.338Z,7.96
2023-03-05T17:46:02.126Z,7.95
2023-03-05T17:47:36.123Z,7.92
2023-03-05T17:49:08.351Z,7.90
2023-03-05T17:50:40.436Z,7.86
2023-03-05T17:52:11.908Z,7.79
2023-03-05T17:53:43.665Z,7.72
2023-03-05T17:55:15.984Z,7.65
2023-03-05T17:56:48.425Z,7.60
2023-03-05T17:58:20.005Z,7.58
2023-03-05T17:59:52.145Z,7.54
2023-03-05T18:01:24.773Z,7.49
2023-03-05T18:02:56.433Z,7.49
2023-03-05T18:04:28.070Z,7.39
2023-03-05T18:05:59.742Z,7.33
2023-03-05T18:07:31.425Z,7.32
2023-03-05T18:09:02.965Z,7.26
2023-03-05T18:10:34.592Z,7.24
2023-03-05T18:12:06.333Z,7.23
2023-03-05T18:13:38.010Z,7.21
2023-03-05T18:15:10.647Z,7.15
2023-03-05T18:16:42.244Z,7.15
2023-03-05T18:18:16.745Z,7.17
2023-03-05T18:19:48.665Z,7.17
2023-03-05T18:21:21.024Z,7.14
2023-03-05T18:22:52.891Z,7.14
2023-03-05T18:24:24.514Z,7.09
2023-03-05T18:25:56.303Z,7.08
2023-03-05T18:27:27.838Z,7.08
2023-03-05T18:28:59.509Z,7.09
2023-03-05T18:30:31.348Z,7.05
2023-03-05T18:32:02.934Z,7.04
2023-03-05T18:33:34.661Z,7.05
2023-03-05T18:35:06.463Z,7.05
2023-03-05T18:36:38.376Z,7.04
2023-03-05T18:38:10.097Z,7.02
2023-03-05T18:39:41.704Z,7.01
2023-03-05T18:41:18.057Z,6.94
2023-03-05T18:42:49.788Z,6.87
2023-03-05T18:44:21.511Z,6.89
2023-03-05T18:45:54.294Z,6.90
2023-03-05T18:47:25.844Z,6.91
2023-03-05T18:48:57.443Z,6.93
2023-03-05T18:50:29.125Z,6.97
2023-03-05T18:52:01.880Z,7.00
2023-03-05T18:53:33.439Z,7.03
2023-03-05T18:55:05.287Z,7.10
2023-03-05T18:56:36.958Z,7.09
2023-03-05T18:58:08.955Z,7.06
2023-03-05T18:59:40.537Z,7.07
2023-03-05T19:01:12.446Z,7.07
2023-03-05T19:02:44.107Z,7.06
2023-03-05T19:04:15.710Z,7.06
2023-03-05T19:05:47.384Z,7.09
2023-03-05T19:07:19.050Z,7.07
2023-03-05T19:08:57.073Z,7.05
2023-03-05T19:10:29.078Z,7.06
2023-03-05T19:12:00.640Z,7.04
2023-03-05T19:13:40.460Z,7.06
2023-03-05T19:15:13.047Z,7.04
2023-03-05T19:16:44.678Z,7.01
2023-03-05T19:18:18.717Z,6.98
2023-03-05T19:19:51.097Z,7.01
2023-03-05T19:21:23.161Z,7.05
2023-03-05T19:22:56.049Z,7.10
2023-03-05T19:24:28.471Z,7.07
2023-03-05T19:26:00.825Z,6.99
2023-03-05T19:27:32.529Z,6.95
2023-03-05T19:29:04.608Z,6.92
2023-03-05T19:30:36.203Z,6.90
2023-03-05T19:32:08.501Z,6.85
2023-03-05T19:33:40.149Z,6.83
2023-03-05T19:35:14.189Z,6.83
2023-03-05T19:36:45.892Z,6.81
2023-03-05T19:38:18.099Z,6.83
2023-03-05T19:39:49.656Z,6.82
2023-03-05T19:41:21.873Z,6.76
2023-03-05T19:42:53.605Z,6.76
2023-03-05T19:44:25.151Z,6.73
2023-03-05T19:46:00.721Z,6.74
2023-03-05T19:47:32.269Z,6.70
2023-03-05T19:49:04.538Z,6.69
2023-03-05T19:50:36.640Z,6.67
2023-03-05T19:52:08.723Z,6.68
2023-03-05T19:53:41.187Z,6.67
2023-03-05T19:55:13.042Z,6.65
2023-03-05T19:56:45.753Z,6.61
2023-03-05T19:58:17.423Z,6.59
2023-03-05T19:59:51.557Z,6.56
2023-03-05T20:01:24.291Z,6.56
2023-03-05T20:02:55.983Z,6.51
2023-03-05T20:04:28.204Z,6.50
2023-03-05T20:05:59.819Z,6.46
2023-03-05T20:07:31.462Z,6.43
2023-03-05T20:09:03.088Z,6.40
2023-03-05T20:10:34.879Z,6.39
2023-03-05T20:12:07.733Z,6.36
2023-03-05T20:13:39.534Z,6.34
2023-03-05T20:15:11.234Z,6.35
2023-03-05T20:16:43.560Z,6.31
2023-03-05T20:18:15.167Z,6.28
2023-03-05T20:19:46.736Z,6.32
2023-03-05T20:21:23.087Z,6.31
2023-03-05T20:22:54.875Z,6.32
2023-03-05T20:24:26.575Z,6.28
2023-03-05T20:25:58.167Z,6.26
2023-03-05T20:27:29.800Z,6.26
2023-03-05T20:29:02.413Z,6.21
2023-03-05T20:30:34.050Z,6.18
2023-03-05T20:32:05.894Z,6.14
2023-03-05T20:33:37.759Z,6.11
2023-03-05T20:35:11.338Z,6.10
2023-03-05T20:36:42.898Z,6.08